sensor_id;sensor_type;location;lat;lon;timestamp;pressure;altitude;pressure_sealevel;temperature;humidity
78751;BME280;68070;50.954;11.060;2023-03-31T00:00:22;98220.14;;;9.33;75.08
78751;BME280;68070;50.954;11.060;2023-03-31T00:03:07;98215.20;;;9.29;75.34
78751;BME280;68070;50.954;11.060;2023-03-31T00:05:55;98218.88;;;9.19;75.98
78751;BME280;68070;50.954;11.060;2023-03-31T00:08:41;98213.61;;;9.16;76.31
78751;BME280;68070;50.954;11.060;2023-03-31T00:11:27;98207.91;;;9.16;76.34
78751;BME280;68070;50.954;11.060;2023-03-31T00:14:12;98204.23;;;9.14;76.78
78751;BME280;68070;50.954;11.060;2023-03-31T00:16:56;98201.77;;;9.17;76.67
78751;BME280;68070;50.954;11.060;2023-03-31T00:19:41;98193.67;;;9.17;76.64
78751;BME280;68070;50.954;11.060;2023-03-31T00:22:26;98189.46;;;9.12;76.79
78751;BME280;68070;50.954;11.060;2023-03-31T00:25:13;98187.96;;;9.15;76.96
78751;BME280;68070;50.954;11.060;2023-03-31T00:27:57;98181.34;;;9.18;76.88
78751;BME280;68070;50.954;11.060;2023-03-31T00:30:42;98176.38;;;9.17;76.76
78751;BME280;68070;50.954;11.060;2023-03-31T00:33:27;98168.04;;;9.16;76.85
78751;BME280;68070;50.954;11.060;2023-03-31T00:36:13;98165.52;;;9.20;76.80
78751;BME280;68070;50.954;11.060;2023-03-31T00:39:05;98157.52;;;9.22;76.57
78751;BME280;68070;50.954;11.060;2023-03-31T00:41:52;98151.28;;;9.20;76.64
78751;BME280;68070;50.954;11.060;2023-03-31T00:44:40;98149.13;;;9.31;76.31
78751;BME280;68070;50.954;11.060;2023-03-31T00:48:00;98146.44;;;9.40;75.59
78751;BME280;68070;50.954;11.060;2023-03-31T00:50:53;98146.45;;;9.42;75.58
78751;BME280;68070;50.954;11.060;2023-03-31T00:53:39;98152.22;;;9.52;75.03
78751;BME280;68070;50.954;11.060;2023-03-31T00:56:26;98147.53;;;9.56;74.67
78751;BME280;68070;50.954;11.060;2023-03-31T00:59:13;98151.12;;;9.56;74.61
78751;BME280;68070;50.954;11.060;2023-03-31T01:01:58;98143.28;;;9.61;74.47
78751;BME280;68070;50.954;11.060;2023-03-31T01:04:53;98136.15;;;9.65;74.07
78751;BME280;68070;50.954;11.060;2023-03-31T01:07:42;98126.71;;;9.59;74.09
78751;BME280;68070;50.954;11.060;2023-03-31T01:10:28;98120.48;;;9.57;74.11
78751;BME280;68070;50.954;11.060;2023-03-31T01:13:17;98118.84;;;9.60;73.84
78751;BME280;68070;50.954;11.060;2023-03-31T01:16:02;98114.46;;;9.57;73.91
78751;BME280;68070;50.954;11.060;2023-03-31T01:18:47;98118.14;;;9.64;73.40
78751;BME280;68070;50.954;11.060;2023-03-31T01:22:07;98113.16;;;9.68;73.30
78751;BME280;68070;50.954;11.060;2023-03-31T01:31:34;98106.64;;;9.65;73.22
78751;BME280;68070;50.954;11.060;2023-03-31T01:34:44;98099.41;;;9.61;73.34
78751;BME280;68070;50.954;11.060;2023-03-31T01:43:25;98097.72;;;9.57;73.35
78751;BME280;68070;50.954;11.060;2023-03-31T01:49:22;98092.41;;;9.57;73.40
78751;BME280;68070;50.954;11.060;2023-03-31T01:58:16;98074.56;;;9.52;73.77
78751;BME280;68070;50.954;11.060;2023-03-31T02:01:27;98072.14;;;9.63;73.32
78751;BME280;68070;50.954;11.060;2023-03-31T02:07:02;98060.13;;;9.63;73.49
78751;BME280;68070;50.954;11.060;2023-03-31T02:09:52;98055.20;;;9.58;73.71
78751;BME280;68070;50.954;11.060;2023-03-31T02:12:42;98052.83;;;9.61;73.82
78751;BME280;68070;50.954;11.060;2023-03-31T02:15:40;98049.73;;;9.64;73.43
78751;BME280;68070;50.954;11.060;2023-03-31T02:18:29;98043.06;;;9.69;73.28
78751;BME280;68070;50.954;11.060;2023-03-31T02:21:16;98042.37;;;9.73;73.38
78751;BME280;68070;50.954;11.060;2023-03-31T02:24:05;98033.82;;;9.74;73.26
78751;BME280;68070;50.954;11.060;2023-03-31T02:26:55;98031.27;;;9.76;73.34
78751;BME280;68070;50.954;11.060;2023-03-31T02:29:42;98025.40;;;9.86;73.13
78751;BME280;68070;50.954;11.060;2023-03-31T02:32:33;98019.10;;;9.87;73.12
78751;BME280;68070;50.954;11.060;2023-03-31T02:35:20;98018.55;;;9.85;73.22
78751;BME280;68070;50.954;11.060;2023-03-31T02:38:05;98011.13;;;9.93;73.31
78751;BME280;68070;50.954;11.060;2023-03-31T02:40:52;98003.27;;;9.89;73.05
78751;BME280;68070;50.954;11.060;2023-03-31T02:43:36;97996.02;;;9.85;73.47
78751;BME280;68070;50.954;11.060;2023-03-31T02:46:21;97992.59;;;9.84;73.56
78751;BME280;68070;50.954;11.060;2023-03-31T02:49:07;97989.84;;;9.88;73.60
78751;BME280;68070;50.954;11.060;2023-03-31T02:55:35;97984.91;;;9.84;73.65
78751;BME280;68070;50.954;11.060;2023-03-31T03:01:26;97982.76;;;9.84;73.73
78751;BME280;68070;50.954;11.060;2023-03-31T03:10:35;97967.48;;;9.84;73.87
78751;BME280;68070;50.954;11.060;2023-03-31T03:13:44;97962.70;;;9.78;74.07
78751;BME280;68070;50.954;11.060;2023-03-31T03:16:36;97961.44;;;9.76;74.36
78751;BME280;68070;50.954;11.060;2023-03-31T03:19:23;97955.52;;;9.85;74.68
78751;BME280;68070;50.954;11.060;2023-03-31T03:22:08;97953.31;;;9.79;75.10
78751;BME280;68070;50.954;11.060;2023-03-31T03:24:53;97949.70;;;9.74;76.06
78751;BME280;68070;50.954;11.060;2023-03-31T03:27:38;97953.35;;;9.73;76.04
78751;BME280;68070;50.954;11.060;2023-03-31T03:30:23;97956.15;;;9.67;76.50
78751;BME280;68070;50.954;11.060;2023-03-31T03:33:07;97950.20;;;9.56;76.45
78751;BME280;68070;50.954;11.060;2023-03-31T03:35:53;97944.94;;;9.53;76.85
78751;BME280;68070;50.954;11.060;2023-03-31T03:38:37;97945.05;;;9.54;77.10
78751;BME280;68070;50.954;11.060;2023-03-31T03:41:21;97943.82;;;9.52;77.52
78751;BME280;68070;50.954;11.060;2023-03-31T03:44:06;97941.95;;;9.47;78.11
78751;BME280;68070;50.954;11.060;2023-03-31T03:46:50;97936.50;;;9.47;78.27
78751;BME280;68070;50.954;11.060;2023-03-31T03:49:35;97929.01;;;9.49;78.72
78751;BME280;68070;50.954;11.060;2023-03-31T03:52:19;97927.16;;;9.44;79.31
78751;BME280;68070;50.954;11.060;2023-03-31T03:55:04;97923.70;;;9.41;80.01
78751;BME280;68070;50.954;11.060;2023-03-31T03:57:49;97913.93;;;9.39;80.08
78751;BME280;68070;50.954;11.060;2023-03-31T04:00:33;97907.06;;;9.40;80.07
78751;BME280;68070;50.954;11.060;2023-03-31T04:03:18;97908.06;;;9.37;80.40
78751;BME280;68070;50.954;11.060;2023-03-31T04:06:03;97902.40;;;9.36;80.00
78751;BME280;68070;50.954;11.060;2023-03-31T04:08:47;97897.75;;;9.41;79.75
78751;BME280;68070;50.954;11.060;2023-03-31T04:11:31;97888.02;;;9.44;79.49
78751;BME280;68070;50.954;11.060;2023-03-31T04:14:15;97887.33;;;9.44;79.59
78751;BME280;68070;50.954;11.060;2023-03-31T04:17:00;97881.51;;;9.40;79.64
78751;BME280;68070;50.954;11.060;2023-03-31T04:19:46;97870.19;;;9.41;79.50
78751;BME280;68070;50.954;11.060;2023-03-31T04:22:35;97865.06;;;9.43;79.16
78751;BME280;68070;50.954;11.060;2023-03-31T04:25:23;97853.91;;;9.43;78.18
78751;BME280;68070;50.954;11.060;2023-03-31T04:28:07;97847.85;;;9.49;77.61
78751;BME280;68070;50.954;11.060;2023-03-31T04:30:53;97845.73;;;9.49;77.99
78751;BME280;68070;50.954;11.060;2023-03-31T04:33:38;97831.69;;;9.43;77.92
78751;BME280;68070;50.954;11.060;2023-03-31T04:36:22;97831.55;;;9.44;77.70
78751;BME280;68070;50.954;11.060;2023-03-31T04:39:08;97828.61;;;9.42;78.07
78751;BME280;68070;50.954;11.060;2023-03-31T04:41:57;97814.59;;;9.37;77.94
78751;BME280;68070;50.954;11.060;2023-03-31T04:44:41;97796.84;;;9.39;77.64
78751;BME280;68070;50.954;11.060;2023-03-31T04:47:26;97779.23;;;9.42;77.55
78751;BME280;68070;50.954;11.060;2023-03-31T04:50:10;97767.00;;;9.35;77.64
78751;BME280;68070;50.954;11.060;2023-03-31T04:52:55;97765.72;;;9.38;77.61
78751;BME280;68070;50.954;11.060;2023-03-31T04:55:39;97763.22;;;9.36;77.50
78751;BME280;68070;50.954;11.060;2023-03-31T04:58:24;97753.00;;;9.27;77.90
78751;BME280;68070;50.954;11.060;2023-03-31T05:01:08;97748.05;;;9.21;77.87
78751;BME280;68070;50.954;11.060;2023-03-31T05:03:53;97745.05;;;9.23;77.76
78751;BME280;68070;50.954;11.060;2023-03-31T05:06:37;97740.27;;;9.19;77.53
78751;BME280;68070;50.954;11.060;2023-03-31T05:09:21;97736.66;;;9.16;77.35
78751;BME280;68070;50.954;11.060;2023-03-31T05:12:06;97732.43;;;9.21;77.12
78751;BME280;68070;50.954;11.060;2023-03-31T05:14:50;97735.27;;;9.35;76.83
78751;BME280;68070;50.954;11.060;2023-03-31T05:17:35;97738.34;;;9.34;76.65
78751;BME280;68070;50.954;11.060;2023-03-31T05:20:19;97742.03;;;9.33;76.64
78751;BME280;68070;50.954;11.060;2023-03-31T05:23:04;97742.05;;;9.36;76.67
78751;BME280;68070;50.954;11.060;2023-03-31T05:25:49;97742.79;;;9.38;76.87
78751;BME280;68070;50.954;11.060;2023-03-31T05:28:35;97736.30;;;9.41;76.60
78751;BME280;68070;50.954;11.060;2023-03-31T05:31:19;97733.59;;;9.42;76.60
78751;BME280;68070;50.954;11.060;2023-03-31T05:34:04;97732.44;;;9.47;76.67
78751;BME280;68070;50.954;11.060;2023-03-31T05:36:48;97732.39;;;9.53;76.31
78751;BME280;68070;50.954;11.060;2023-03-31T05:39:36;97732.17;;;9.50;76.22
78751;BME280;68070;50.954;11.060;2023-03-31T05:42:20;97725.22;;;9.50;76.06
78751;BME280;68070;50.954;11.060;2023-03-31T05:45:05;97725.75;;;9.54;76.43
78751;BME280;68070;50.954;11.060;2023-03-31T05:47:50;97727.05;;;9.57;76.50
78751;BME280;68070;50.954;11.060;2023-03-31T05:50:34;97720.67;;;9.57;76.55
78751;BME280;68070;50.954;11.060;2023-03-31T05:53:19;97722.41;;;9.63;76.79
78751;BME280;68070;50.954;11.060;2023-03-31T05:56:04;97717.14;;;9.74;76.61
78751;BME280;68070;50.954;11.060;2023-03-31T05:58:49;97711.19;;;9.77;76.65
78751;BME280;68070;50.954;11.060;2023-03-31T06:01:34;97689.11;;;9.83;76.27
78751;BME280;68070;50.954;11.060;2023-03-31T06:04:20;97678.77;;;9.95;76.08
78751;BME280;68070;50.954;11.060;2023-03-31T06:07:04;97666.58;;;10.07;75.89
78751;BME280;68070;50.954;11.060;2023-03-31T06:09:49;97653.86;;;10.10;75.91
78751;BME280;68070;50.954;11.060;2023-03-31T06:12:33;97644.48;;;10.17;75.15
78751;BME280;68070;50.954;11.060;2023-03-31T06:15:17;97630.08;;;10.27;74.83
78751;BME280;68070;50.954;11.060;2023-03-31T06:18:01;97615.68;;;10.38;74.37
78751;BME280;68070;50.954;11.060;2023-03-31T06:20:45;97619.23;;;10.43;73.95
78751;BME280;68070;50.954;11.060;2023-03-31T06:23:30;97626.80;;;10.52;74.17
78751;BME280;68070;50.954;11.060;2023-03-31T06:26:16;97638.75;;;10.61;74.07
78751;BME280;68070;50.954;11.060;2023-03-31T06:29:01;97633.86;;;10.61;73.62
78751;BME280;68070;50.954;11.060;2023-03-31T06:31:45;97638.96;;;10.73;73.33
78751;BME280;68070;50.954;11.060;2023-03-31T06:34:30;97638.92;;;10.84;73.07
78751;BME280;68070;50.954;11.060;2023-03-31T06:37:14;97639.34;;;10.98;73.27
78751;BME280;68070;50.954;11.060;2023-03-31T06:39:58;97631.73;;;10.98;72.57
78751;BME280;68070;50.954;11.060;2023-03-31T06:42:43;97637.13;;;10.90;72.34
78751;BME280;68070;50.954;11.060;2023-03-31T06:45:27;97641.54;;;10.91;72.58
78751;BME280;68070;50.954;11.060;2023-03-31T06:48:12;97635.39;;;10.84;72.71
78751;BME280;68070;50.954;11.060;2023-03-31T06:51:00;97634.84;;;10.82;73.04
78751;BME280;68070;50.954;11.060;2023-03-31T06:53:45;97636.17;;;10.76;73.28
78751;BME280;68070;50.954;11.060;2023-03-31T06:56:29;97633.89;;;10.77;73.22
78751;BME280;68070;50.954;11.060;2023-03-31T06:59:13;97631.31;;;10.80;72.84
78751;BME280;68070;50.954;11.060;2023-03-31T07:01:58;97635.89;;;10.73;73.10
78751;BME280;68070;50.954;11.060;2023-03-31T07:04:42;97624.89;;;10.73;73.05
78751;BME280;68070;50.954;11.060;2023-03-31T07:07:26;97619.84;;;10.85;72.66
78751;BME280;68070;50.954;11.060;2023-03-31T07:10:13;97616.70;;;10.92;72.67
78751;BME280;68070;50.954;11.060;2023-03-31T07:12:58;97616.27;;;10.96;72.03
78751;BME280;68070;50.954;11.060;2023-03-31T07:15:43;97615.59;;;10.95;72.25
78751;BME280;68070;50.954;11.060;2023-03-31T07:18:30;97602.83;;;11.11;71.81
78751;BME280;68070;50.954;11.060;2023-03-31T07:21:17;97598.48;;;11.42;69.96
78751;BME280;68070;50.954;11.060;2023-03-31T07:24:02;97597.20;;;11.54;69.10
78751;BME280;68070;50.954;11.060;2023-03-31T07:26:46;97600.44;;;11.58;68.53
78751;BME280;68070;50.954;11.060;2023-03-31T07:29:30;97604.05;;;11.60;68.76
78751;BME280;68070;50.954;11.060;2023-03-31T07:32:14;97598.98;;;11.67;68.01
78751;BME280;68070;50.954;11.060;2023-03-31T07:34:59;97599.93;;;11.54;67.78
78751;BME280;68070;50.954;11.060;2023-03-31T07:37:45;97586.41;;;11.41;68.54
78751;BME280;68070;50.954;11.060;2023-03-31T07:40:30;97576.28;;;11.41;68.64
78751;BME280;68070;50.954;11.060;2023-03-31T07:43:14;97578.23;;;11.50;68.50
78751;BME280;68070;50.954;11.060;2023-03-31T07:45:58;97579.42;;;11.47;68.58
78751;BME280;68070;50.954;11.060;2023-03-31T07:48:43;97581.41;;;11.36;68.18
78751;BME280;68070;50.954;11.060;2023-03-31T07:51:29;97580.33;;;11.29;68.60
78751;BME280;68070;50.954;11.060;2023-03-31T07:54:13;97572.31;;;11.34;68.63
78751;BME280;68070;50.954;11.060;2023-03-31T07:56:57;97569.26;;;11.33;68.62
78751;BME280;68070;50.954;11.060;2023-03-31T07:59:45;97561.76;;;11.30;68.57
78751;BME280;68070;50.954;11.060;2023-03-31T08:02:30;97561.30;;;11.34;68.64
78751;BME280;68070;50.954;11.060;2023-03-31T08:05:16;97544.14;;;11.36;68.92
78751;BME280;68070;50.954;11.060;2023-03-31T08:08:00;97543.59;;;11.47;68.94
78751;BME280;68070;50.954;11.060;2023-03-31T08:10:44;97543.23;;;11.51;68.92
78751;BME280;68070;50.954;11.060;2023-03-31T08:13:29;97530.55;;;11.56;68.91
78751;BME280;68070;50.954;11.060;2023-03-31T08:16:13;97527.52;;;11.51;68.26
78751;BME280;68070;50.954;11.060;2023-03-31T08:18:57;97524.61;;;11.55;68.68
78751;BME280;68070;50.954;11.060;2023-03-31T08:21:41;97529.02;;;11.62;68.00
78751;BME280;68070;50.954;11.060;2023-03-31T08:24:26;97526.38;;;11.60;67.89
78751;BME280;68070;50.954;11.060;2023-03-31T08:27:10;97525.66;;;11.62;67.83
78751;BME280;68070;50.954;11.060;2023-03-31T08:29:54;97527.04;;;11.54;68.10
78751;BME280;68070;50.954;11.060;2023-03-31T08:32:39;97517.02;;;11.49;68.31
78751;BME280;68070;50.954;11.060;2023-03-31T08:35:23;97506.11;;;11.48;68.32
78751;BME280;68070;50.954;11.060;2023-03-31T08:38:07;97497.27;;;11.49;68.05
78751;BME280;68070;50.954;11.060;2023-03-31T08:40:57;97494.02;;;11.37;68.62
78751;BME280;68070;50.954;11.060;2023-03-31T08:43:44;97484.55;;;11.30;68.76
78751;BME280;68070;50.954;11.060;2023-03-31T08:46:30;97480.41;;;11.34;69.15
78751;BME280;68070;50.954;11.060;2023-03-31T08:49:19;97474.02;;;11.38;68.87
78751;BME280;68070;50.954;11.060;2023-03-31T08:52:08;97470.13;;;11.30;69.08
78751;BME280;68070;50.954;11.060;2023-03-31T08:54:57;97471.55;;;11.24;68.99
78751;BME280;68070;50.954;11.060;2023-03-31T09:00:43;97459.92;;;11.17;69.59
78751;BME280;68070;50.954;11.060;2023-03-31T09:12:19;97444.70;;;11.02;71.82
78751;BME280;68070;50.954;11.060;2023-03-31T09:15:10;97441.45;;;10.99;71.66
78751;BME280;68070;50.954;11.060;2023-03-31T09:17:59;97426.82;;;10.95;72.11
78751;BME280;68070;50.954;11.060;2023-03-31T09:20:49;97420.98;;;10.82;72.66
78751;BME280;68070;50.954;11.060;2023-03-31T09:23:38;97416.30;;;10.77;73.07
78751;BME280;68070;50.954;11.060;2023-03-31T09:32:36;97396.45;;;10.53;73.92
78751;BME280;68070;50.954;11.060;2023-03-31T09:35:23;97393.43;;;10.51;74.57
78751;BME280;68070;50.954;11.060;2023-03-31T09:38:12;97391.67;;;10.44;74.76
78751;BME280;68070;50.954;11.060;2023-03-31T09:40:59;97388.23;;;10.36;74.57
78751;BME280;68070;50.954;11.060;2023-03-31T09:43:45;97389.10;;;10.33;74.72
78751;BME280;68070;50.954;11.060;2023-03-31T09:46:34;97389.55;;;10.34;75.32
78751;BME280;68070;50.954;11.060;2023-03-31T09:49:25;97389.34;;;10.39;75.59
78751;BME280;68070;50.954;11.060;2023-03-31T09:52:22;97384.46;;;10.36;76.06
78751;BME280;68070;50.954;11.060;2023-03-31T09:58:12;97382.10;;;10.26;76.08
78751;BME280;68070;50.954;11.060;2023-03-31T10:01:06;97378.80;;;10.22;76.10
78751;BME280;68070;50.954;11.060;2023-03-31T10:03:54;97380.08;;;10.21;76.40
78751;BME280;68070;50.954;11.060;2023-03-31T10:06:41;97374.27;;;10.23;76.66
78751;BME280;68070;50.954;11.060;2023-03-31T10:09:28;97375.71;;;10.22;77.06
78751;BME280;68070;50.954;11.060;2023-03-31T10:12:19;97373.45;;;10.24;77.45
78751;BME280;68070;50.954;11.060;2023-03-31T10:15:22;97371.25;;;10.24;78.08
78751;BME280;68070;50.954;11.060;2023-03-31T10:18:16;97375.76;;;10.20;77.82
78751;BME280;68070;50.954;11.060;2023-03-31T10:21:03;97376.63;;;10.16;77.75
78751;BME280;68070;50.954;11.060;2023-03-31T10:23:49;97377.15;;;10.15;77.33
78751;BME280;68070;50.954;11.060;2023-03-31T10:26:34;97385.50;;;10.18;78.43
78751;BME280;68070;50.954;11.060;2023-03-31T10:29:22;97385.88;;;10.22;80.10
78751;BME280;68070;50.954;11.060;2023-03-31T10:32:18;97389.11;;;10.07;79.77
78751;BME280;68070;50.954;11.060;2023-03-31T10:35:33;97402.55;;;9.92;80.66
78751;BME280;68070;50.954;11.060;2023-03-31T10:38:25;97392.15;;;9.89;82.05
78751;BME280;68070;50.954;11.060;2023-03-31T10:41:11;97390.45;;;9.65;79.89
78751;BME280;68070;50.954;11.060;2023-03-31T10:44:01;97373.45;;;9.37;79.26
78751;BME280;68070;50.954;11.060;2023-03-31T10:46:47;97358.77;;;9.06;78.14
78751;BME280;68070;50.954;11.060;2023-03-31T10:49:37;97348.93;;;8.88;78.50
78751;BME280;68070;50.954;11.060;2023-03-31T10:52:24;97346.09;;;8.73;78.95
78751;BME280;68070;50.954;11.060;2023-03-31T10:55:12;97333.73;;;8.65;79.42
78751;BME280;68070;50.954;11.060;2023-03-31T10:58:38;97323.85;;;8.72;79.35
78751;BME280;68070;50.954;11.060;2023-03-31T11:13:58;97294.51;;;9.36;77.92
78751;BME280;68070;50.954;11.060;2023-03-31T11:23:00;97278.31;;;10.40;74.55
78751;BME280;68070;50.954;11.060;2023-03-31T11:25:59;97288.22;;;10.68;74.34
78751;BME280;68070;50.954;11.060;2023-03-31T11:32:19;97290.56;;;11.21;72.46
78751;BME280;68070;50.954;11.060;2023-03-31T11:41:08;97286.09;;;13.09;69.48
78751;BME280;68070;50.954;11.060;2023-03-31T11:44:01;97279.16;;;13.40;66.73
78751;BME280;68070;50.954;11.060;2023-03-31T11:46:52;97283.48;;;13.09;65.82
78751;BME280;68070;50.954;11.060;2023-03-31T11:49:40;97281.91;;;12.91;66.36
78751;BME280;68070;50.954;11.060;2023-03-31T11:52:29;97280.65;;;12.75;66.12
78751;BME280;68070;50.954;11.060;2023-03-31T11:55:16;97279.70;;;12.90;66.13
78751;BME280;68070;50.954;11.060;2023-03-31T11:58:05;97277.67;;;12.87;65.64
78751;BME280;68070;50.954;11.060;2023-03-31T12:01:19;97267.35;;;12.77;66.33
78751;BME280;68070;50.954;11.060;2023-03-31T12:04:27;97257.27;;;13.15;65.92
78751;BME280;68070;50.954;11.060;2023-03-31T12:07:23;97246.75;;;13.66;66.18
78751;BME280;68070;50.954;11.060;2023-03-31T12:10:21;97238.96;;;13.91;65.58
78751;BME280;68070;50.954;11.060;2023-03-31T12:13:15;97236.02;;;13.82;65.53
78751;BME280;68070;50.954;11.060;2023-03-31T12:16:39;97231.73;;;13.86;66.63
78751;BME280;68070;50.954;11.060;2023-03-31T12:19:31;97228.09;;;13.70;65.07
78751;BME280;68070;50.954;11.060;2023-03-31T12:22:39;97227.64;;;13.66;64.51
78751;BME280;68070;50.954;11.060;2023-03-31T12:25:27;97229.35;;;13.60;64.61
78751;BME280;68070;50.954;11.060;2023-03-31T12:28:14;97224.36;;;13.60;64.08
78751;BME280;68070;50.954;11.060;2023-03-31T12:31:00;97226.91;;;13.72;64.89
78751;BME280;68070;50.954;11.060;2023-03-31T12:33:54;97216.00;;;14.04;64.05
78751;BME280;68070;50.954;11.060;2023-03-31T12:36:53;97203.77;;;14.05;64.17
78751;BME280;68070;50.954;11.060;2023-03-31T12:42:58;97206.93;;;13.66;62.76
78751;BME280;68070;50.954;11.060;2023-03-31T12:45:55;97209.60;;;13.56;63.39
78751;BME280;68070;50.954;11.060;2023-03-31T12:54:58;97222.00;;;12.98;63.10
78751;BME280;68070;50.954;11.060;2023-03-31T12:57:45;97225.59;;;12.73;63.12
78751;BME280;68070;50.954;11.060;2023-03-31T13:00:30;97229.48;;;12.52;65.24
78751;BME280;68070;50.954;11.060;2023-03-31T13:11:57;97281.02;;;11.35;71.16
78751;BME280;68070;50.954;11.060;2023-03-31T13:14:50;97293.23;;;10.75;73.43
78751;BME280;68070;50.954;11.060;2023-03-31T13:17:37;97282.95;;;10.27;74.36
78751;BME280;68070;50.954;11.060;2023-03-31T13:20:36;97276.98;;;9.79;74.07
78751;BME280;68070;50.954;11.060;2023-03-31T13:23:22;97266.08;;;9.38;75.52
78751;BME280;68070;50.954;11.060;2023-03-31T13:29:19;97243.52;;;8.96;75.71
78751;BME280;68070;50.954;11.060;2023-03-31T13:32:06;97237.30;;;8.83;76.09
78751;BME280;68070;50.954;11.060;2023-03-31T13:35:04;97240.36;;;8.86;76.20
78751;BME280;68070;50.954;11.060;2023-03-31T13:38:01;97245.79;;;8.93;76.36
78751;BME280;68070;50.954;11.060;2023-03-31T13:44:31;97241.88;;;9.15;75.80
78751;BME280;68070;50.954;11.060;2023-03-31T14:05:11;97232.41;;;9.28;74.63
78751;BME280;68070;50.954;11.060;2023-03-31T14:08:09;97231.50;;;9.43;74.98
78751;BME280;68070;50.954;11.060;2023-03-31T14:14:10;97223.91;;;9.67;73.01
78751;BME280;68070;50.954;11.060;2023-03-31T14:17:00;97216.23;;;9.84;72.58
78751;BME280;68070;50.954;11.060;2023-03-31T14:23:24;97214.91;;;9.91;71.17
78751;BME280;68070;50.954;11.060;2023-03-31T14:32:49;97219.32;;;10.55;70.03
78751;BME280;68070;50.954;11.060;2023-03-31T14:38:30;97220.23;;;10.80;70.46
78751;BME280;68070;50.954;11.060;2023-03-31T14:41:20;97213.75;;;10.93;70.42
78751;BME280;68070;50.954;11.060;2023-03-31T14:44:13;97212.33;;;10.98;69.51
78751;BME280;68070;50.954;11.060;2023-03-31T14:47:01;97214.90;;;10.92;69.41
78751;BME280;68070;50.954;11.060;2023-03-31T14:49:46;97213.34;;;10.92;70.40
78751;BME280;68070;50.954;11.060;2023-03-31T14:52:31;97210.91;;;11.01;71.42
78751;BME280;68070;50.954;11.060;2023-03-31T14:55:19;97215.27;;;10.99;71.18
78751;BME280;68070;50.954;11.060;2023-03-31T14:58:09;97207.69;;;10.98;71.61
78751;BME280;68070;50.954;11.060;2023-03-31T15:00:56;97199.30;;;11.03;71.81
78751;BME280;68070;50.954;11.060;2023-03-31T15:03:41;97195.36;;;11.13;71.74
78751;BME280;68070;50.954;11.060;2023-03-31T15:06:26;97192.10;;;11.19;70.44
78751;BME280;68070;50.954;11.060;2023-03-31T15:09:26;97192.90;;;11.18;70.43
78751;BME280;68070;50.954;11.060;2023-03-31T15:12:14;97197.55;;;11.20;69.79
78751;BME280;68070;50.954;11.060;2023-03-31T15:15:04;97191.41;;;11.36;70.14
78751;BME280;68070;50.954;11.060;2023-03-31T15:17:50;97196.63;;;11.46;69.57
78751;BME280;68070;50.954;11.060;2023-03-31T15:20:36;97198.70;;;11.46;69.21
78751;BME280;68070;50.954;11.060;2023-03-31T15:23:23;97200.83;;;11.59;69.33
78751;BME280;68070;50.954;11.060;2023-03-31T15:26:11;97201.11;;;11.66;68.11
78751;BME280;68070;50.954;11.060;2023-03-31T15:29:08;97205.13;;;11.62;68.78
78751;BME280;68070;50.954;11.060;2023-03-31T15:31:55;97210.97;;;11.67;68.82
78751;BME280;68070;50.954;11.060;2023-03-31T15:34:41;97206.98;;;11.74;69.73
78751;BME280;68070;50.954;11.060;2023-03-31T15:37:28;97204.61;;;11.82;69.47
78751;BME280;68070;50.954;11.060;2023-03-31T15:40:26;97199.27;;;11.88;68.76
78751;BME280;68070;50.954;11.060;2023-03-31T15:43:17;97197.08;;;11.87;68.69
78751;BME280;68070;50.954;11.060;2023-03-31T15:46:02;97195.34;;;11.95;68.47
78751;BME280;68070;50.954;11.060;2023-03-31T15:48:52;97193.48;;;11.99;68.85
78751;BME280;68070;50.954;11.060;2023-03-31T15:51:39;97186.45;;;11.98;68.48
78751;BME280;68070;50.954;11.060;2023-03-31T15:54:40;97187.08;;;11.94;67.84
78751;BME280;68070;50.954;11.060;2023-03-31T15:57:32;97186.85;;;11.89;68.62
78751;BME280;68070;50.954;11.060;2023-03-31T16:03:26;97177.63;;;11.87;68.38
78751;BME280;68070;50.954;11.060;2023-03-31T16:06:33;97184.82;;;11.78;69.46
78751;BME280;68070;50.954;11.060;2023-03-31T16:09:39;97181.73;;;11.82;67.99
78751;BME280;68070;50.954;11.060;2023-03-31T16:12:34;97180.27;;;11.83;67.38
78751;BME280;68070;50.954;11.060;2023-03-31T16:15:29;97179.20;;;11.74;67.35
78751;BME280;68070;50.954;11.060;2023-03-31T16:18:29;97182.23;;;11.64;68.79
78751;BME280;68070;50.954;11.060;2023-03-31T16:21:23;97187.17;;;11.66;67.59
78751;BME280;68070;50.954;11.060;2023-03-31T16:24:09;97190.92;;;11.65;68.12
78751;BME280;68070;50.954;11.060;2023-03-31T16:27:01;97195.63;;;11.59;68.03
78751;BME280;68070;50.954;11.060;2023-03-31T16:29:49;97198.15;;;11.51;68.19
78751;BME280;68070;50.954;11.060;2023-03-31T16:32:33;97197.01;;;11.43;68.64
78751;BME280;68070;50.954;11.060;2023-03-31T16:35:17;97199.96;;;11.45;69.07
78751;BME280;68070;50.954;11.060;2023-03-31T16:38:03;97201.76;;;11.30;68.87
78751;BME280;68070;50.954;11.060;2023-03-31T16:40:49;97197.71;;;11.17;70.45
78751;BME280;68070;50.954;11.060;2023-03-31T16:43:34;97202.05;;;11.19;70.03
78751;BME280;68070;50.954;11.060;2023-03-31T16:46:20;97196.64;;;11.08;71.06
78751;BME280;68070;50.954;11.060;2023-03-31T16:49:05;97198.70;;;10.95;71.75
78751;BME280;68070;50.954;11.060;2023-03-31T16:51:49;97202.02;;;10.93;71.97
78751;BME280;68070;50.954;11.060;2023-03-31T16:54:33;97205.73;;;10.83;72.07
78751;BME280;68070;50.954;11.060;2023-03-31T16:57:18;97211.45;;;10.74;72.68
78751;BME280;68070;50.954;11.060;2023-03-31T17:00:04;97211.05;;;10.71;73.10
78751;BME280;68070;50.954;11.060;2023-03-31T17:02:49;97214.21;;;10.65;73.28
78751;BME280;68070;50.954;11.060;2023-03-31T17:05:40;97217.02;;;10.55;73.88
78751;BME280;68070;50.954;11.060;2023-03-31T17:08:25;97220.77;;;10.55;74.14
78751;BME280;68070;50.954;11.060;2023-03-31T17:11:12;97220.31;;;10.52;74.32
78751;BME280;68070;50.954;11.060;2023-03-31T17:13:57;97215.52;;;10.42;74.63